sensor_id;sensor_type;location;lat;lon;timestamp;temperature;humidity
20102;DHT22;10210;52.284;9.892;2023-01-24T00:00:34;5.10;99.90
20102;DHT22;10210;52.284;9.892;2023-01-24T00:03:00;5.10;99.90
20102;DHT22;10210;52.284;9.892;2023-01-24T00:05:25;5.10;99.90
20102;DHT22;10210;52.284;9.892;2023-01-24T00:07:51;5.10;99.90
20102;DHT22;10210;52.284;9.892;2023-01-24T00:10:17;5.10;99.90
20102;DHT22;10210;52.284;9.892;2023-01-24T00:12:43;5.10;99.90
20102;DHT22;10210;52.284;9.892;2023-01-24T00:15:09;5.20;99.90
20102;DHT22;10210;52.284;9.892;2023-01-24T00:17:36;5.10;99.90
20102;DHT22;10210;52.284;9.892;2023-01-24T00:20:02;5.10;99.90
20102;DHT22;10210;52.284;9.892;2023-01-24T00:22:31;5.20;99.90
20102;DHT22;10210;52.284;9.892;2023-01-24T00:24:57;5.10;99.90
20102;DHT22;10210;52.284;9.892;2023-01-24T00:27:22;5.10;99.90
20102;DHT22;10210;52.284;9.892;2023-01-24T00:29:48;5.20;99.90
20102;DHT22;10210;52.284;9.892;2023-01-24T00:32:14;5.10;99.90
20102;DHT22;10210;52.284;9.892;2023-01-24T00:34:39;5.10;99.90
20102;DHT22;10210;52.284;9.892;2023-01-24T00:37:05;5.10;99.90
20102;DHT22;10210;52.284;9.892;2023-01-24T00:39:31;5.10;99.90
20102;DHT22;10210;52.284;9.892;2023-01-24T00:41:56;5.10;99.90
20102;DHT22;10210;52.284;9.892;2023-01-24T00:44:22;5.10;99.90
20102;DHT22;10210;52.284;9.892;2023-01-24T00:46:51;5.10;99.90
20102;DHT22;10210;52.284;9.892;2023-01-24T00:49:17;5.10;99.90
20102;DHT22;10210;52.284;9.892;2023-01-24T00:51:44;5.10;99.90
20102;DHT22;10210;52.284;9.892;2023-01-24T00:54:09;5.10;99.90
20102;DHT22;10210;52.284;9.892;2023-01-24T00:56:35;5.10;99.90
20102;DHT22;10210;52.284;9.892;2023-01-24T00:59:00;5.10;99.90
20102;DHT22;10210;52.284;9.892;2023-01-24T01:01:26;5.10;99.90
20102;DHT22;10210;52.284;9.892;2023-01-24T01:03:56;5.10;99.90
20102;DHT22;10210;52.284;9.892;2023-01-24T01:06:22;5.10;99.90
20102;DHT22;10210;52.284;9.892;2023-01-24T01:08:49;5.10;99.90
20102;DHT22;10210;52.284;9.892;2023-01-24T01:11:17;5.10;99.90
20102;DHT22;10210;52.284;9.892;2023-01-24T01:13:44;5.10;99.90
20102;DHT22;10210;52.284;9.892;2023-01-24T01:16:16;5.10;99.90
20102;DHT22;10210;52.284;9.892;2023-01-24T01:18:47;5.10;99.90
20102;DHT22;10210;52.284;9.892;2023-01-24T01:21:16;5.10;99.90
20102;DHT22;10210;52.284;9.892;2023-01-24T01:23:44;5.10;99.90
20102;DHT22;10210;52.284;9.892;2023-01-24T01:26:18;5.10;99.90
20102;DHT22;10210;52.284;9.892;2023-01-24T01:28:45;5.10;99.90
20102;DHT22;10210;52.284;9.892;2023-01-24T01:31:11;5.10;99.90
20102;DHT22;10210;52.284;9.892;2023-01-24T01:33:37;5.10;99.90
20102;DHT22;10210;52.284;9.892;2023-01-24T01:36:03;5.10;99.90
20102;DHT22;10210;52.284;9.892;2023-01-24T01:38:29;5.10;99.90
20102;DHT22;10210;52.284;9.892;2023-01-24T01:40:56;5.10;99.90
20102;DHT22;10210;52.284;9.892;2023-01-24T01:43:25;5.10;99.90
20102;DHT22;10210;52.284;9.892;2023-01-24T01:45:55;5.10;99.90
20102;DHT22;10210;52.284;9.892;2023-01-24T01:48:40;5.10;99.90
20102;DHT22;10210;52.284;9.892;2023-01-24T01:51:14;5.10;99.90
20102;DHT22;10210;52.284;9.892;2023-01-24T01:53:52;5.10;99.90
20102;DHT22;10210;52.284;9.892;2023-01-24T01:56:29;5.10;99.90
20102;DHT22;10210;52.284;9.892;2023-01-24T01:59:04;5.10;99.90
20102;DHT22;10210;52.284;9.892;2023-01-24T02:01:34;5.10;99.90
20102;DHT22;10210;52.284;9.892;2023-01-24T02:04:11;5.10;99.90
20102;DHT22;10210;52.284;9.892;2023-01-24T02:09:41;5.10;99.90
20102;DHT22;10210;52.284;9.892;2023-01-24T02:12:26;5.10;99.90
20102;DHT22;10210;52.284;9.892;2023-01-24T02:15:07;5.10;99.90
20102;DHT22;10210;52.284;9.892;2023-01-24T02:17:55;5.10;99.90
20102;DHT22;10210;52.284;9.892;2023-01-24T02:26:12;5.00;99.90
20102;DHT22;10210;52.284;9.892;2023-01-24T02:29:07;5.00;99.90
20102;DHT22;10210;52.284;9.892;2023-01-24T02:31:58;5.00;99.90
20102;DHT22;10210;52.284;9.892;2023-01-24T02:34:26;5.00;99.90
20102;DHT22;10210;52.284;9.892;2023-01-24T02:37:02;5.00;99.90
20102;DHT22;10210;52.284;9.892;2023-01-24T02:42:18;5.00;99.90
20102;DHT22;10210;52.284;9.892;2023-01-24T02:45:10;5.00;99.90
20102;DHT22;10210;52.284;9.892;2023-01-24T02:47:47;5.00;99.90
20102;DHT22;10210;52.284;9.892;2023-01-24T02:50:19;5.00;99.90
20102;DHT22;10210;52.284;9.892;2023-01-24T02:52:48;5.00;99.90
20102;DHT22;10210;52.284;9.892;2023-01-24T02:55:33;5.00;99.90
20102;DHT22;10210;52.284;9.892;2023-01-24T02:57:59;4.90;99.90
20102;DHT22;10210;52.284;9.892;2023-01-24T03:00:32;4.90;99.90
20102;DHT22;10210;52.284;9.892;2023-01-24T03:02:58;4.90;99.90
20102;DHT22;10210;52.284;9.892;2023-01-24T03:05:24;4.90;99.90
20102;DHT22;10210;52.284;9.892;2023-01-24T03:07:50;4.90;99.90
20102;DHT22;10210;52.284;9.892;2023-01-24T03:10:17;4.90;99.90
20102;DHT22;10210;52.284;9.892;2023-01-24T03:12:44;4.90;99.90
20102;DHT22;10210;52.284;9.892;2023-01-24T03:15:29;4.90;99.90
20102;DHT22;10210;52.284;9.892;2023-01-24T03:18:14;4.80;99.90
20102;DHT22;10210;52.284;9.892;2023-01-24T03:20:58;4.90;99.90
20102;DHT22;10210;52.284;9.892;2023-01-24T03:23:42;4.80;99.90
20102;DHT22;10210;52.284;9.892;2023-01-24T03:26:26;4.80;99.90
20102;DHT22;10210;52.284;9.892;2023-01-24T03:29:11;4.80;99.90
20102;DHT22;10210;52.284;9.892;2023-01-24T03:31:55;4.80;99.90
20102;DHT22;10210;52.284;9.892;2023-01-24T03:34:40;4.80;99.90
20102;DHT22;10210;52.284;9.892;2023-01-24T03:37:18;4.70;99.90
20102;DHT22;10210;52.284;9.892;2023-01-24T03:40:07;4.70;99.90
20102;DHT22;10210;52.284;9.892;2023-01-24T03:42:36;4.70;99.90
20102;DHT22;10210;52.284;9.892;2023-01-24T03:45:18;4.70;99.90
20102;DHT22;10210;52.284;9.892;2023-01-24T03:47:53;4.70;99.90
20102;DHT22;10210;52.284;9.892;2023-01-24T03:53:19;4.80;99.90
20102;DHT22;10210;52.284;9.892;2023-01-24T03:55:46;4.70;99.90
20102;DHT22;10210;52.284;9.892;2023-01-24T03:58:12;4.70;99.90
20102;DHT22;10210;52.284;9.892;2023-01-24T04:00:38;4.70;99.90
20102;DHT22;10210;52.284;9.892;2023-01-24T04:03:05;4.70;99.90
20102;DHT22;10210;52.284;9.892;2023-01-24T04:05:33;4.70;99.90
20102;DHT22;10210;52.284;9.892;2023-01-24T04:07:59;4.70;99.90
20102;DHT22;10210;52.284;9.892;2023-01-24T04:10:25;4.70;99.90
20102;DHT22;10210;52.284;9.892;2023-01-24T04:12:51;4.70;99.90
20102;DHT22;10210;52.284;9.892;2023-01-24T04:15:28;4.70;99.90
20102;DHT22;10210;52.284;9.892;2023-01-24T04:17:56;4.70;99.90
20102;DHT22;10210;52.284;9.892;2023-01-24T04:20:24;4.70;99.90
20102;DHT22;10210;52.284;9.892;2023-01-24T04:22:52;4.70;99.90
20102;DHT22;10210;52.284;9.892;2023-01-24T04:25:18;4.70;99.90
20102;DHT22;10210;52.284;9.892;2023-01-24T04:27:44;4.70;99.90
20102;DHT22;10210;52.284;9.892;2023-01-24T04:30:12;4.70;99.90
20102;DHT22;10210;52.284;9.892;2023-01-24T04:32:39;4.70;99.90
20102;DHT22;10210;52.284;9.892;2023-01-24T04:35:05;4.70;99.90
20102;DHT22;10210;52.284;9.892;2023-01-24T04:37:32;4.70;99.90
20102;DHT22;10210;52.284;9.892;2023-01-24T04:39:58;4.80;99.90
20102;DHT22;10210;52.284;9.892;2023-01-24T04:42:26;4.70;99.90
20102;DHT22;10210;52.284;9.892;2023-01-24T04:44:51;4.70;99.90
20102;DHT22;10210;52.284;9.892;2023-01-24T04:47:17;4.70;99.90
20102;DHT22;10210;52.284;9.892;2023-01-24T04:49:43;4.80;99.90
20102;DHT22;10210;52.284;9.892;2023-01-24T04:52:11;4.80;99.90
20102;DHT22;10210;52.284;9.892;2023-01-24T04:54:39;4.80;99.90
20102;DHT22;10210;52.284;9.892;2023-01-24T04:57:06;4.80;99.90
20102;DHT22;10210;52.284;9.892;2023-01-24T04:59:32;4.80;99.90
20102;DHT22;10210;52.284;9.892;2023-01-24T05:01:57;4.80;99.90
20102;DHT22;10210;52.284;9.892;2023-01-24T05:04:23;4.80;99.90
20102;DHT22;10210;52.284;9.892;2023-01-24T05:06:49;4.80;99.90
20102;DHT22;10210;52.284;9.892;2023-01-24T05:09:15;4.80;99.90
20102;DHT22;10210;52.284;9.892;2023-01-24T05:11:40;4.80;99.90
20102;DHT22;10210;52.284;9.892;2023-01-24T05:14:08;4.90;99.90
20102;DHT22;10210;52.284;9.892;2023-01-24T05:16:35;4.80;99.90
20102;DHT22;10210;52.284;9.892;2023-01-24T05:19:01;4.90;99.90
20102;DHT22;10210;52.284;9.892;2023-01-24T05:21:26;4.80;99.90
20102;DHT22;10210;52.284;9.892;2023-01-24T05:23:52;4.80;99.90
20102;DHT22;10210;52.284;9.892;2023-01-24T05:26:20;4.90;99.90
20102;DHT22;10210;52.284;9.892;2023-01-24T05:28:51;4.90;99.90
20102;DHT22;10210;52.284;9.892;2023-01-24T05:31:19;4.90;99.90
20102;DHT22;10210;52.284;9.892;2023-01-24T05:33:45;4.90;99.90
20102;DHT22;10210;52.284;9.892;2023-01-24T05:36:18;4.90;99.90
20102;DHT22;10210;52.284;9.892;2023-01-24T05:38:45;4.90;99.90
20102;DHT22;10210;52.284;9.892;2023-01-24T05:41:14;4.90;99.90
20102;DHT22;10210;52.284;9.892;2023-01-24T05:43:42;4.90;99.90
20102;DHT22;10210;52.284;9.892;2023-01-24T05:46:14;4.90;99.90
20102;DHT22;10210;52.284;9.892;2023-01-24T05:48:42;4.90;99.90
20102;DHT22;10210;52.284;9.892;2023-01-24T05:51:10;4.80;99.90
20102;DHT22;10210;52.284;9.892;2023-01-24T05:53:39;4.80;99.90
20102;DHT22;10210;52.284;9.892;2023-01-24T05:56:09;4.80;99.90
20102;DHT22;10210;52.284;9.892;2023-01-24T05:58:41;4.80;99.90
20102;DHT22;10210;52.284;9.892;2023-01-24T06:01:14;4.90;99.90
20102;DHT22;10210;52.284;9.892;2023-01-24T06:03:43;4.80;99.90
20102;DHT22;10210;52.284;9.892;2023-01-24T06:06:11;4.90;99.90
20102;DHT22;10210;52.284;9.892;2023-01-24T06:08:39;4.80;99.90
20102;DHT22;10210;52.284;9.892;2023-01-24T06:11:06;4.80;99.90
20102;DHT22;10210;52.284;9.892;2023-01-24T06:13:54;4.90;99.90
20102;DHT22;10210;52.284;9.892;2023-01-24T06:16:22;4.90;99.90
20102;DHT22;10210;52.284;9.892;2023-01-24T06:18:50;4.80;99.90
20102;DHT22;10210;52.284;9.892;2023-01-24T06:23:58;4.80;99.90
20102;DHT22;10210;52.284;9.892;2023-01-24T06:26:25;4.80;99.90
20102;DHT22;10210;52.284;9.892;2023-01-24T06:28:51;4.80;99.90
20102;DHT22;10210;52.284;9.892;2023-01-24T06:37:32;4.70;99.90
20102;DHT22;10210;52.284;9.892;2023-01-24T06:40:07;4.80;99.90
20102;DHT22;10210;52.284;9.892;2023-01-24T06:42:34;4.70;99.90
20102;DHT22;10210;52.284;9.892;2023-01-24T06:45:00;4.70;99.90
20102;DHT22;10210;52.284;9.892;2023-01-24T06:47:26;4.60;99.90
20102;DHT22;10210;52.284;9.892;2023-01-24T06:49:53;4.70;99.90
20102;DHT22;10210;52.284;9.892;2023-01-24T06:52:19;4.60;99.90
20102;DHT22;10210;52.284;9.892;2023-01-24T06:54:47;4.60;99.90
20102;DHT22;10210;52.284;9.892;2023-01-24T06:57:13;4.60;99.90
20102;DHT22;10210;52.284;9.892;2023-01-24T06:59:38;4.50;99.90
20102;DHT22;10210;52.284;9.892;2023-01-24T07:02:06;4.50;99.90
20102;DHT22;10210;52.284;9.892;2023-01-24T07:04:39;4.60;99.90
20102;DHT22;10210;52.284;9.892;2023-01-24T07:07:06;4.60;99.90
20102;DHT22;10210;52.284;9.892;2023-01-24T07:09:33;4.50;99.90
20102;DHT22;10210;52.284;9.892;2023-01-24T07:12:00;4.60;99.90
20102;DHT22;10210;52.284;9.892;2023-01-24T07:14:26;4.60;99.90
20102;DHT22;10210;52.284;9.892;2023-01-24T07:16:52;4.50;99.90
20102;DHT22;10210;52.284;9.892;2023-01-24T07:19:21;4.60;99.90
20102;DHT22;10210;52.284;9.892;2023-01-24T07:21:49;4.60;99.90
20102;DHT22;10210;52.284;9.892;2023-01-24T07:24:18;4.60;99.90
20102;DHT22;10210;52.284;9.892;2023-01-24T07:26:46;4.60;99.90
20102;DHT22;10210;52.284;9.892;2023-01-24T07:29:13;4.60;99.90
20102;DHT22;10210;52.284;9.892;2023-01-24T07:31:39;4.60;99.90
20102;DHT22;10210;52.284;9.892;2023-01-24T07:34:05;4.60;99.90
20102;DHT22;10210;52.284;9.892;2023-01-24T07:36:31;4.60;99.90
20102;DHT22;10210;52.284;9.892;2023-01-24T07:38:57;4.70;99.90
20102;DHT22;10210;52.284;9.892;2023-01-24T07:41:23;4.60;99.90
20102;DHT22;10210;52.284;9.892;2023-01-24T07:43:49;4.60;99.90
20102;DHT22;10210;52.284;9.892;2023-01-24T07:46:14;4.60;99.90
20102;DHT22;10210;52.284;9.892;2023-01-24T07:48:40;4.60;99.90
20102;DHT22;10210;52.284;9.892;2023-01-24T07:51:06;4.60;99.90
20102;DHT22;10210;52.284;9.892;2023-01-24T07:53:32;4.70;99.90
20102;DHT22;10210;52.284;9.892;2023-01-24T07:56:01;4.70;99.90
20102;DHT22;10210;52.284;9.892;2023-01-24T07:58:29;4.70;99.90
20102;DHT22;10210;52.284;9.892;2023-01-24T08:00:55;4.70;99.90
20102;DHT22;10210;52.284;9.892;2023-01-24T08:03:21;4.70;99.90
20102;DHT22;10210;52.284;9.892;2023-01-24T08:05:46;4.70;99.90
20102;DHT22;10210;52.284;9.892;2023-01-24T08:08:12;4.70;99.90
20102;DHT22;10210;52.284;9.892;2023-01-24T08:10:38;4.70;99.90
20102;DHT22;10210;52.284;9.892;2023-01-24T08:13:03;4.70;99.90
20102;DHT22;10210;52.284;9.892;2023-01-24T08:15:29;4.70;99.90
20102;DHT22;10210;52.284;9.892;2023-01-24T08:17:55;4.70;99.90
20102;DHT22;10210;52.284;9.892;2023-01-24T08:20:21;4.70;99.90
20102;DHT22;10210;52.284;9.892;2023-01-24T08:22:47;4.70;99.90
20102;DHT22;10210;52.284;9.892;2023-01-24T08:25:12;4.70;99.90
20102;DHT22;10210;52.284;9.892;2023-01-24T08:27:41;4.70;99.90
20102;DHT22;10210;52.284;9.892;2023-01-24T08:30:09;4.70;99.90
20102;DHT22;10210;52.284;9.892;2023-01-24T08:32:38;4.70;99.90
20102;DHT22;10210;52.284;9.892;2023-01-24T08:35:04;4.70;99.90
20102;DHT22;10210;52.284;9.892;2023-01-24T08:37:30;4.70;99.90
20102;DHT22;10210;52.284;9.892;2023-01-24T08:39:56;4.70;99.90
20102;DHT22;10210;52.284;9.892;2023-01-24T08:42:24;4.70;99.90
20102;DHT22;10210;52.284;9.892;2023-01-24T08:44:50;4.70;99.90
20102;DHT22;10210;52.284;9.892;2023-01-24T08:47:17;4.80;99.90
20102;DHT22;10210;52.284;9.892;2023-01-24T08:49:43;4.80;99.90
20102;DHT22;10210;52.284;9.892;2023-01-24T08:52:09;4.80;99.90
20102;DHT22;10210;52.284;9.892;2023-01-24T08:54:35;4.80;99.90
20102;DHT22;10210;52.284;9.892;2023-01-24T08:57:02;4.80;99.90
20102;DHT22;10210;52.284;9.892;2023-01-24T08:59:29;4.90;99.90
20102;DHT22;10210;52.284;9.892;2023-01-24T09:01:55;4.90;99.90
20102;DHT22;10210;52.284;9.892;2023-01-24T09:04:21;4.90;99.90
20102;DHT22;10210;52.284;9.892;2023-01-24T09:06:47;4.90;99.90
20102;DHT22;10210;52.284;9.892;2023-01-24T09:09:14;4.90;99.90
20102;DHT22;10210;52.284;9.892;2023-01-24T09:11:40;4.90;99.90
20102;DHT22;10210;52.284;9.892;2023-01-24T09:14:06;4.90;99.90
20102;DHT22;10210;52.284;9.892;2023-01-24T09:16:31;4.90;99.90
20102;DHT22;10210;52.284;9.892;2023-01-24T09:18:57;4.90;99.90
20102;DHT22;10210;52.284;9.892;2023-01-24T09:21:23;4.90;99.90
20102;DHT22;10210;52.284;9.892;2023-01-24T09:23:48;4.90;99.90
20102;DHT22;10210;52.284;9.892;2023-01-24T09:26:14;5.00;99.90
20102;DHT22;10210;52.284;9.892;2023-01-24T09:28:40;5.00;99.90
20102;DHT22;10210;52.284;9.892;2023-01-24T09:31:09;5.00;99.90
20102;DHT22;10210;52.284;9.892;2023-01-24T09:33:35;5.00;99.90
20102;DHT22;10210;52.284;9.892;2023-01-24T09:36:02;5.00;99.90
20102;DHT22;10210;52.284;9.892;2023-01-24T09:38:31;5.00;99.90
20102;DHT22;10210;52.284;9.892;2023-01-24T09:41:29;5.00;99.90
20102;DHT22;10210;52.284;9.892;2023-01-24T09:44:05;5.00;99.90
20102;DHT22;10210;52.284;9.892;2023-01-24T09:47:02;5.10;99.90
20102;DHT22;10210;52.284;9.892;2023-01-24T09:49:59;5.00;99.90
20102;DHT22;10210;52.284;9.892;2023-01-24T09:52:35;5.00;99.90
20102;DHT22;10210;52.284;9.892;2023-01-24T09:55:25;5.10;99.90
20102;DHT22;10210;52.284;9.892;2023-01-24T10:00:36;5.10;99.90
20102;DHT22;10210;52.284;9.892;2023-01-24T10:03:12;5.00;99.90
20102;DHT22;10210;52.284;9.892;2023-01-24T10:05:48;5.10;99.90
20102;DHT22;10210;52.284;9.892;2023-01-24T10:08:39;5.10;99.90
20102;DHT22;10210;52.284;9.892;2023-01-24T10:11:40;5.10;99.90
20102;DHT22;10210;52.284;9.892;2023-01-24T10:14:31;5.10;99.90
20102;DHT22;10210;52.284;9.892;2023-01-24T10:20:42;5.10;99.90
20102;DHT22;10210;52.284;9.892;2023-01-24T10:23:29;5.10;99.90
20102;DHT22;10210;52.284;9.892;2023-01-24T10:28:50;5.10;99.90
20102;DHT22;10210;52.284;9.892;2023-01-24T10:31:57;5.20;99.90
20102;DHT22;10210;52.284;9.892;2023-01-24T10:34:42;5.20;99.90
20102;DHT22;10210;52.284;9.892;2023-01-24T10:39:43;5.20;99.90
20102;DHT22;10210;52.284;9.892;2023-01-24T10:42:28;5.20;99.90
20102;DHT22;10210;52.284;9.892;2023-01-24T10:45:00;5.30;99.90
20102;DHT22;10210;52.284;9.892;2023-01-24T10:47:52;5.30;99.90
20102;DHT22;10210;52.284;9.892;2023-01-24T10:50:22;5.30;99.90
20102;DHT22;10210;52.284;9.892;2023-01-24T10:52:49;5.30;99.90
20102;DHT22;10210;52.284;9.892;2023-01-24T10:55:32;5.30;99.90
20102;DHT22;10210;52.284;9.892;2023-01-24T10:58:25;5.30;99.90
20102;DHT22;10210;52.284;9.892;2023-01-24T11:01:17;5.30;99.90
20102;DHT22;10210;52.284;9.892;2023-01-24T11:03:47;5.40;99.90
20102;DHT22;10210;52.284;9.892;2023-01-24T11:06:32;5.40;99.90
20102;DHT22;10210;52.284;9.892;2023-01-24T11:09:14;5.40;99.90
20102;DHT22;10210;52.284;9.892;2023-01-24T11:11:56;5.40;99.90
20102;DHT22;10210;52.284;9.892;2023-01-24T11:14:26;5.40;99.90
20102;DHT22;10210;52.284;9.892;2023-01-24T11:16:55;5.40;99.90
20102;DHT22;10210;52.284;9.892;2023-01-24T11:19:29;5.40;99.90
20102;DHT22;10210;52.284;9.892;2023-01-24T11:22:02;5.40;99.90
20102;DHT22;10210;52.284;9.892;2023-01-24T11:24:45;5.40;99.90
20102;DHT22;10210;52.284;9.892;2023-01-24T11:27:15;5.40;99.90
20102;DHT22;10210;52.284;9.892;2023-01-24T11:29:43;5.50;99.90
20102;DHT22;10210;52.284;9.892;2023-01-24T11:35:12;5.40;99.90
20102;DHT22;10210;52.284;9.892;2023-01-24T11:49:17;5.50;99.90
20102;DHT22;10210;52.284;9.892;2023-01-24T11:55:53;5.40;99.90
20102;DHT22;10210;52.284;9.892;2023-01-24T12:01:46;5.40;99.90
20102;DHT22;10210;52.284;9.892;2023-01-24T12:07:45;5.40;99.90
20102;DHT22;10210;52.284;9.892;2023-01-24T12:10:28;5.40;99.90
20102;DHT22;10210;52.284;9.892;2023-01-24T12:13:52;5.30;99.90
20102;DHT22;10210;52.284;9.892;2023-01-24T12:16:52;5.30;99.90
20102;DHT22;10210;52.284;9.892;2023-01-24T12:22:19;5.30;99.90
20102;DHT22;10210;52.284;9.892;2023-01-24T12:24:52;5.30;99.90
20102;DHT22;10210;52.284;9.892;2023-01-24T12:27:25;5.30;99.90
20102;DHT22;10210;52.284;9.892;2023-01-24T12:30:15;5.20;99.90
20102;DHT22;10210;52.284;9.892;2023-01-24T12:36:16;5.20;99.90
20102;DHT22;10210;52.284;9.892;2023-01-24T12:39:15;5.20;99.90
20102;DHT22;10210;52.284;9.892;2023-01-24T12:42:04;5.10;99.90
20102;DHT22;10210;52.284;9.892;2023-01-24T12:44:48;5.10;99.90
20102;DHT22;10210;52.284;9.892;2023-01-24T12:47:53;5.10;99.90
20102;DHT22;10210;52.284;9.892;2023-01-24T12:53:53;5.10;99.90
20102;DHT22;10210;52.284;9.892;2023-01-24T12:56:32;5.10;99.90
20102;DHT22;10210;52.284;9.892;2023-01-24T12:59:25;5.00;99.90
20102;DHT22;10210;52.284;9.892;2023-01-24T13:01:58;5.00;99.90
20102;DHT22;10210;52.284;9.892;2023-01-24T13:05:09;5.00;99.90
20102;DHT22;10210;52.284;9.892;2023-01-24T13:07:58;5.00;99.90
20102;DHT22;10210;52.284;9.892;2023-01-24T13:11:03;5.00;99.90
20102;DHT22;10210;52.284;9.892;2023-01-24T13:22:27;5.00;99.90
20102;DHT22;10210;52.284;9.892;2023-01-24T13:25:22;5.00;99.90
20102;DHT22;10210;52.284;9.892;2023-01-24T13:31:35;5.00;99.90
20102;DHT22;10210;52.284;9.892;2023-01-24T13:34:21;5.00;99.90
20102;DHT22;10210;52.284;9.892;2023-01-24T13:36:53;4.90;99.90
20102;DHT22;10210;52.284;9.892;2023-01-24T13:39:38;4.90;99.90
20102;DHT22;10210;52.284;9.892;2023-01-24T13:44:45;4.90;99.90
20102;DHT22;10210;52.284;9.892;2023-01-24T13:54:57;5.00;99.90
20102;DHT22;10210;52.284;9.892;2023-01-24T13:57:36;5.00;99.90
20102;DHT22;10210;52.284;9.892;2023-01-24T14:02:40;5.00;99.90
20102;DHT22;10210;52.284;9.892;2023-01-24T14:14:00;5.00;99.90
20102;DHT22;10210;52.284;9.892;2023-01-24T14:19:24;5.10;99.90
20102;DHT22;10210;52.284;9.892;2023-01-24T14:24:51;5.00;99.90
20102;DHT22;10210;52.284;9.892;2023-01-24T14:27:27;5.00;99.90
20102;DHT22;10210;52.284;9.892;2023-01-24T14:30:23;4.90;99.90
20102;DHT22;10210;52.284;9.892;2023-01-24T14:33:04;4.90;99.90
20102;DHT22;10210;52.284;9.892;2023-01-24T14:36:19;4.90;99.90
20102;DHT22;10210;52.284;9.892;2023-01-24T14:39:10;4.90;99.90
20102;DHT22;10210;52.284;9.892;2023-01-24T14:41:42;4.90;99.90
20102;DHT22;10210;52.284;9.892;2023-01-24T14:44:31;4.80;99.90
20102;DHT22;10210;52.284;9.892;2023-01-24T14:49:51;4.80;99.90
20102;DHT22;10210;52.284;9.892;2023-01-24T14:52:25;4.80;99.90
20102;DHT22;10210;52.284;9.892;2023-01-24T14:55:01;4.80;99.90
20102;DHT22;10210;52.284;9.892;2023-01-24T14:57:48;4.80;99.90
20102;DHT22;10210;52.284;9.892;2023-01-24T15:00:16;4.70;99.90
20102;DHT22;10210;52.284;9.892;2023-01-24T15:03:02;4.70;99.90
20102;DHT22;10210;52.284;9.892;2023-01-24T15:05:34;4.70;99.90
20102;DHT22;10210;52.284;9.892;2023-01-24T15:08:05;4.70;99.90
20102;DHT22;10210;52.284;9.892;2023-01-24T15:10:40;4.70;99.90
20102;DHT22;10210;52.284;9.892;2023-01-24T15:13:10;4.70;99.90
20102;DHT22;10210;52.284;9.892;2023-01-24T15:15:44;4.70;99.90
20102;DHT22;10210;52.284;9.892;2023-01-24T15:20:55;4.70;99.90
20102;DHT22;10210;52.284;9.892;2023-01-24T15:23:23;4.70;99.90
20102;DHT22;10210;52.284;9.892;2023-01-24T15:25:53;4.70;99.90
20102;DHT22;10210;52.284;9.892;2023-01-24T15:28:30;4.70;99.90
20102;DHT22;10210;52.284;9.892;2023-01-24T15:30:58;4.70;99.90
20102;DHT22;10210;52.284;9.892;2023-01-24T15:33:41;4.70;99.90
20102;DHT22;10210;52.284;9.892;2023-01-24T15:36:24;4.70;99.90
20102;DHT22;10210;52.284;9.892;2023-01-24T15:38:53;4.70;99.90
20102;DHT22;10210;52.284;9.892;2023-01-24T15:41:26;4.70;99.90
20102;DHT22;10210;52.284;9.892;2023-01-24T15:44:12;4.70;99.90
20102;DHT22;10210;52.284;9.892;2023-01-24T15:46:39;4.70;99.90
20102;DHT22;10210;52.284;9.892;2023-01-24T15:49:27;4.60;99.90
20102;DHT22;10210;52.284;9.892;2023-01-24T15:54:39;4.70;99.90
20102;DHT22;10210;52.284;9.892;2023-01-24T15:57:27;4.70;99.90
20102;DHT22;10210;52.284;9.892;2023-01-24T16:00:22;4.60;99.90
20102;DHT22;10210;52.284;9.892;2023-01-24T16:02:49;4.60;99.90
20102;DHT22;10210;52.284;9.892;2023-01-24T16:05:18;4.60;99.90
20102;DHT22;10210;52.284;9.892;2023-01-24T16:07:45;4.50;99.90
20102;DHT22;10210;52.284;9.892;2023-01-24T16:10:15;4.50;99.90
20102;DHT22;10210;52.284;9.892;2023-01-24T16:12:42;4.50;99.90
20102;DHT22;10210;52.284;9.892;2023-01-24T16:15:15;4.50;99.90
20102;DHT22;10210;52.284;9.892;2023-01-24T16:17:42;4.50;99.90
20102;DHT22;10210;52.284;9.892;2023-01-24T16:20:20;4.50;99.90
20102;DHT22;10210;52.284;9.892;2023-01-24T16:22:48;4.50;99.90
20102;DHT22;10210;52.284;9.892;2023-01-24T16:25:15;4.50;99.90
20102;DHT22;10210;52.284;9.892;2023-01-24T16:27:42;4.50;99.90
20102;DHT22;10210;52.284;9.892;2023-01-24T16:30:20;4.50;99.90
20102;DHT22;10210;52.284;9.892;2023-01-24T16:32:51;4.50;99.90
20102;DHT22;10210;52.284;9.892;2023-01-24T16:35:19;4.50;99.90
20102;DHT22;10210;52.284;9.892;2023-01-24T16:37:45;4.50;99.90
20102;DHT22;10210;52.284;9.892;2023-01-24T16:40:13;4.50;99.90
20102;DHT22;10210;52.284;9.892;2023-01-24T16:42:43;4.50;99.90
20102;DHT22;10210;52.284;9.892;2023-01-24T16:45:15;4.50;99.90
20102;DHT22;10210;52.284;9.892;2023-01-24T16:47:44;4.50;99.90
20102;DHT22;10210;52.284;9.892;2023-01-24T16:50:11;4.50;99.90
20102;DHT22;10210;52.284;9.892;2023-01-24T16:52:38;4.50;99.90
20102;DHT22;10210;52.284;9.892;2023-01-24T16:55:04;4.50;99.90
20102;DHT22;10210;52.284;9.892;2023-01-24T16:57:31;4.50;99.90
20102;DHT22;10210;52.284;9.892;2023-01-24T16:59:57;4.50;99.90
20102;DHT22;10210;52.284;9.892;2023-01-24T17:02:23;4.50;99.90
20102;DHT22;10210;52.284;9.892;2023-01-24T17:04:48;4.50;99.90
20102;DHT22;10210;52.284;9.892;2023-01-24T17:07:14;4.50;99.90
20102;DHT22;10210;52.284;9.892;2023-01-24T17:09:41;4.50;99.90
20102;DHT22;10210;52.284;9.892;2023-01-24T17:12:06;4.50;99.90
20102;DHT22;10210;52.284;9.892;2023-01-24T17:14:36;4.50;99.90
20102;DHT22;10210;52.284;9.892;2023-01-24T17:17:01;4.50;99.90
20102;DHT22;10210;52.284;9.892;2023-01-24T17:19:27;4.40;99.90
20102;DHT22;10210;52.284;9.892;2023-01-24T17:21:53;4.40;99.90
20102;DHT22;10210;52.284;9.892;2023-01-24T17:24:19;4.40;99.90
20102;DHT22;10210;52.284;9.892;2023-01-24T17:26:45;4.50;99.90
20102;DHT22;10210;52.284;9.892;2023-01-24T17:29:10;4.50;99.90
20102;DHT22;10210;52.284;9.892;2023-01-24T17:31:36;4.50;99.90
20102;DHT22;10210;52.284;9.892;2023-01-24T17:34:02;4.50;99.90
20102;DHT22;10210;52.284;9.892;2023-01-24T17:36:27;4.50;99.90
20102;DHT22;10210;52.284;9.892;2023-01-24T17:38:53;4.50;99.90
20102;DHT22;10210;52.284;9.892;2023-01-24T17:41:21;4.50;99.90
20102;DHT22;10210;52.284;9.892;2023-01-24T17:43:49;4.50;99.90
20102;DHT22;10210;52.284;9.892;2023-01-24T17:46:15;4.50;99.90
20102;DHT22;10210;52.284;9.892;2023-01-24T17:48:42;4.50;99.90
20102;DHT22;10210;52.284;9.892;2023-01-24T17:51:08;4.40;99.90
20102;DHT22;10210;52.284;9.892;2023-01-24T17:53:36;4.50;99.90
20102;DHT22;10210;52.284;9.892;2023-01-24T17:56:02;4.50;99.90
20102;DHT22;10210;52.284;9.892;2023-01-24T17:58:30;4.50;99.90
20102;DHT22;10210;52.284;9.892;2023-01-24T18:00:55;4.50;99.90
20102;DHT22;10210;52.284;9.892;2023-01-24T18:03:21;4.50;99.90
20102;DHT22;10210;52.284;9.892;2023-01-24T18:05:51;4.40;99.90
20102;DHT22;10210;52.284;9.892;2023-01-24T18:08:17;4.40;99.90
20102;DHT22;10210;52.284;9.892;2023-01-24T18:10:45;4.40;99.90
20102;DHT22;10210;52.284;9.892;2023-01-24T18:13:11;4.40;99.90